Flight Track Log - Related Links

Times and Time Zones

All times are in EDT time to prevent confusion due to time zone crossing. See the ASA601 flight status page for this flight to view local times or setup timezone preferences in your user account.

Time Position Orientation Groundspeed Altitude Reporting Facility
EDT Latitude Longitude Course Direction KTS MPH feet Rate Location/Type
Mon 01:19:24 AM 36.0753 -115.1047 89° East 191 220 3,500  Level Los Angeles Center
Mon 01:20:07 AM 36.0761 -115.0592 89° East 185 213 4,800 1,806 Climbing Los Angeles Center
Mon 01:21:07 AM 36.0739 -114.9800 92° East 248 285 6,600 1,579 Climbing Los Angeles Center
Mon 01:21:23 AM 36.0711 -114.9697 108° East 224 258 6,800 2,361 Climbing Los Angeles Center
Mon 01:22:08 AM 36.0139 -114.9228 146° Southeast 300 345 9,000 2,951 Climbing Los Angeles Center
Mon 01:22:24 AM 35.9892 -114.9136 163° South 286 329 9,800 2,557 Climbing Los Angeles Center
Mon 01:23:09 AM 35.9464 -114.9506 215° Southwest 278 320 11,600 2,516 Climbing Los Angeles Center
Mon 01:23:26 AM 35.9389 -114.9750 249° West 278 320 12,400 2,400 Climbing Los Angeles Center
Mon 01:24:04 AM 35.9367 -115.0336 267° West 261 300 13,800 1,770 Climbing Los Angeles Center
Mon 01:24:27 AM 35.9361 -115.0681 269° West 269 310 14,200 2,143 Climbing Los Angeles Center
Mon 01:25:28 AM 35.9308 -115.1781 267° West 305 351 16,800 2,311 Climbing Los Angeles Center
Mon 01:26:29 AM 35.9261 -115.2903 267° West 320 368 18,900 1,475 Climbing Los Angeles Center
Mon 01:27:30 AM 35.9211 -115.4144 267° West 355 409 19,800 1,268 Climbing Los Angeles Center
Mon 01:28:32 AM 35.9150 -115.5569 267° West 386 444 21,500 1,610 Climbing Los Angeles Center
Mon 01:29:33 AM 35.9081 -115.6967 267° West 408 470 23,100 1,574 Climbing Los Angeles Center
Mon 01:30:34 AM 35.9022 -115.8344 267° West 419 482 24,700 1,426 Climbing Los Angeles Center
Mon 01:31:35 AM 35.9056 -115.9653 272° West 416 479 26,000 1,415 Climbing Los Angeles Center
Mon 01:32:37 AM 36.0025 -116.0933 313° West 422 486 27,600 1,561 Climbing Los Angeles Center
Mon 01:33:38 AM 36.0883 -116.1925 317° Northwest 423 487 29,200 1,475 Climbing Los Angeles Center
Mon 01:34:39 AM 36.1708 -116.2878 317° Northwest 420 483 30,600 1,230 Climbing Los Angeles Center
Mon 01:35:40 AM 36.2544 -116.3858 317° Northwest 416 479 31,700 1,180 Climbing Los Angeles Center
Mon 01:36:41 AM 36.3400 -116.4836 317° Northwest 418 481 33,000 1,131 Climbing Los Angeles Center
Mon 01:37:42 AM 36.4225 -116.5803 317° Northwest 411 473 34,000 488 Climbing Los Angeles Center
Mon 01:38:44 AM 36.5044 -116.6753 317° Northwest 406 467 34,000  Level Los Angeles Center
Mon 01:39:45 AM 36.5928 -116.7725 319° Northwest 405 466 34,000  Level Los Angeles Center
Mon 01:40:46 AM 36.6900 -116.8425 330° Northwest 405 466 34,000  Level Los Angeles Center
Mon 01:41:47 AM 36.7600 -116.8964 328° Northwest 403 464 34,000  Level Los Angeles Center
Mon 01:42:38 AM 36.8789 -116.9872 329° Northwest 398 458 34,000  Level Oakland Center
Mon 01:43:39 AM 36.9722 -117.0597 328° Northwest 396 456 34,000  Level Oakland Center
Mon 01:44:40 AM 37.0692 -117.1303 330° Northwest 399 459 34,000  Level Oakland Center
Mon 01:45:40 AM 37.1722 -117.1844 337° Northwest 402 463 34,000  Level Oakland Center
Mon 01:46:41 AM 37.2736 -117.2392 337° Northwest 396 456 34,000  Level Oakland Center
Mon 01:47:42 AM 37.3747 -117.2917 338° Northwest 394 453 34,000  Level Oakland Center
Mon 01:48:42 AM 37.4764 -117.3489 336° Northwest 397 457 34,000  Level Oakland Center
Mon 01:49:43 AM 37.5764 -117.4044 336° Northwest 392 451 34,000  Level Oakland Center
Mon 01:50:44 AM 37.6783 -117.4617 336° Northwest 397 457 34,000  Level Oakland Center
Mon 01:51:44 AM 37.7800 -117.5178 336° Northwest 396 456 34,000  Level Oakland Center
Mon 01:52:45 AM 37.8808 -117.5742 336° Northwest 394 453 34,000  Level Oakland Center
Mon 01:53:45 AM 37.9814 -117.6306 336° Northwest 391 450 34,000  Level Oakland Center
Mon 01:54:46 AM 38.0831 -117.6881 336° Northwest 395 455 34,000  Level Oakland Center
Mon 01:55:47 AM 38.1839 -117.7439 336° Northwest 393 452 34,000  Level Oakland Center
Mon 01:56:47 AM 38.2844 -117.8003 336° Northwest 392 451 34,000  Level Oakland Center
Mon 01:57:48 AM 38.3844 -117.8578 336° Northwest 392 451 34,000  Level Oakland Center
Mon 01:58:49 AM 38.4858 -117.9153 336° Northwest 396 456 34,000  Level Oakland Center
Mon 01:59:49 AM 38.5872 -117.9717 337° Northwest 396 456 34,000  Level Oakland Center
Mon 02:00:50 AM 38.6978 -118.0347 336° Northwest 398 458 34,000  Level Oakland Center
Mon 02:01:50 AM 38.7986 -118.0928 336° Northwest 398 458 34,000  Level Oakland Center
Mon 02:02:51 AM 38.8992 -118.1511 336° Northwest 398 458 34,000  Level Oakland Center
Mon 02:03:52 AM 38.9992 -118.2086 336° Northwest 395 455 34,000  Level Oakland Center
Mon 02:04:52 AM 39.0997 -118.2664 336° Northwest 397 457 34,000  Level Oakland Center
Mon 02:05:53 AM 39.1989 -118.3239 336° Northwest 393 452 34,000  Level Oakland Center
Mon 02:06:54 AM 39.2983 -118.3828 335° Northwest 395 455 34,000  Level Oakland Center
Mon 02:07:54 AM 39.3931 -118.4372 336° Northwest 395 455 34,000  Level Oakland Center
Mon 02:08:55 AM 39.4964 -118.4992 335° Northwest 397 457 34,000  Level Oakland Center
Mon 02:09:55 AM 39.5961 -118.5572 336° Northwest 398 458 34,000  Level Oakland Center
Mon 02:10:56 AM 39.6972 -118.6172 335° Northwest 401 461 34,000  Level Oakland Center
Mon 02:11:57 AM 39.7972 -118.6769 335° Northwest 400 460 34,000  Level Oakland Center
Mon 02:12:57 AM 39.8981 -118.7367 336° Northwest 399 459 34,000  Level Oakland Center
Mon 02:13:58 AM 40.0178 -118.8086 335° Northwest 399 459 34,000  Level Oakland Center
Mon 02:14:59 AM 40.1178 -118.8678 336° Northwest 396 456 34,000  Level Oakland Center
Mon 02:16:11 AM 40.2353 -118.9406 335° Northwest 391 450 34,000  Level Oakland Center
Mon 02:17:12 AM 40.3344 -119.0000 335° Northwest 391 450 34,000  Level Oakland Center
Mon 02:18:12 AM 40.4328 -119.0600 335° Northwest 392 451 34,000  Level Oakland Center
Mon 02:19:13 AM 40.5314 -119.1186 336° Northwest 390 449 34,000  Level Oakland Center
Mon 02:20:13 AM 40.6308 -119.1794 335° Northwest 394 453 34,000  Level Oakland Center
Mon 02:21:14 AM 40.7297 -119.2397 335° Northwest 391 450 34,000  Level Oakland Center
Mon 02:22:15 AM 40.8233 -119.2964 335° Northwest 391 450 34,000  Level Oakland Center
Mon 02:23:15 AM 40.9183 -119.3553 335° Northwest 393 452 34,000  Level Oakland Center
Mon 02:24:16 AM 41.0286 -119.4225 335° Northwest 391 450 34,000  Level Oakland Center
Mon 02:25:16 AM 41.1181 -119.4792 334° Northwest 389 448 34,000  Level Oakland Center
Mon 02:25:51 AM 41.1764 -119.5169 334° Northwest 389 448 34,000  Level Seattle Center
Mon 02:26:52 AM 41.2750 -119.5778 335° Northwest 390 449 34,000  Level Seattle Center
Mon 02:27:52 AM 41.3736 -119.6383 335° Northwest 390 449 34,000  Level Seattle Center
Mon 02:28:53 AM 41.4736 -119.6969 336° Northwest 394 453 34,000  Level Seattle Center
Mon 02:29:53 AM 41.5714 -119.7583 335° Northwest 389 448 34,000  Level Seattle Center
Mon 02:30:53 AM 41.6683 -119.8194 335° Northwest 386 444 34,000  Level Seattle Center
Mon 02:31:54 AM 41.7653 -119.8808 335° Northwest 386 444 34,000  Level Seattle Center
Mon 02:32:54 AM 41.8564 -119.9425 333° Northwest 373 429 34,000  Level Seattle Center
Mon 02:33:54 AM 41.9525 -120.0042 334° Northwest 380 437 34,000  Level Seattle Center
Mon 02:34:55 AM 42.0494 -120.0642 335° Northwest 381 438 34,000  Level Seattle Center
Mon 02:35:55 AM 42.1461 -120.1264 334° Northwest 384 442 34,000  Level Seattle Center
Mon 02:36:55 AM 42.2406 -120.1869 335° Northwest 377 434 34,000  Level Seattle Center
Mon 02:37:56 AM 42.3364 -120.2478 335° Northwest 379 436 34,000  Level Seattle Center
Mon 02:38:56 AM 42.4486 -120.3197 335° Northwest 374 430 34,000  Level Seattle Center
Mon 02:39:56 AM 42.5425 -120.3817 334° Northwest 375 432 34,000  Level Seattle Center
Mon 02:40:57 AM 42.6367 -120.4436 334° Northwest 376 433 34,000  Level Seattle Center
Mon 02:41:57 AM 42.7306 -120.5036 335° Northwest 376 433 34,000  Level Seattle Center
Mon 02:42:57 AM 42.8233 -120.5644 334° Northwest 373 429 34,000  Level Seattle Center
Mon 02:43:57 AM 42.9181 -120.6264 334° Northwest 376 433 34,000  Level Seattle Center
Mon 02:44:58 AM 43.0131 -120.6886 334° Northwest 379 436 34,000  Level Seattle Center
Mon 02:45:58 AM 43.1092 -120.7519 334° Northwest 377 434 34,000  Level Seattle Center
Mon 02:46:58 AM 43.2022 -120.8133 334° Northwest 380 437 34,000  Level Seattle Center
Mon 02:47:59 AM 43.2967 -120.8761 334° Northwest 378 435 34,000  Level Seattle Center
Mon 02:48:59 AM 43.3919 -120.9392 334° Northwest 381 438 34,000  Level Seattle Center
Mon 02:49:59 AM 43.4872 -121.0039 334° Northwest 383 441 34,000  Level Seattle Center
Mon 02:50:59 AM 43.5817 -121.0658 335° Northwest 383 441 34,000  Level Seattle Center
Mon 02:52:00 AM 43.6783 -121.1311 334° Northwest 382 440 34,000  Level Seattle Center
Mon 02:53:00 AM 43.7739 -121.2006 332° Northwest 386 444 34,000  Level Seattle Center
Mon 02:54:00 AM 43.8697 -121.2625 335° Northwest 385 443 34,000  Level Seattle Center
Mon 02:55:00 AM 43.9658 -121.3292 333° Northwest 386 444 34,000  Level Seattle Center
Mon 02:56:01 AM 44.0622 -121.3944 334° Northwest 385 443 34,000  Level Seattle Center
Mon 02:57:01 AM 44.1578 -121.4622 333° Northwest 385 443 34,000  Level Seattle Center
Mon 02:58:01 AM 44.2539 -121.5269 334° Northwest 385 443 34,000  Level Seattle Center
Mon 02:59:01 AM 44.3503 -121.5950 333° Northwest 386 444 34,000  Level Seattle Center
Mon 03:00:02 AM 44.4461 -121.6606 334° Northwest 385 443 34,000  Level Seattle Center
Mon 03:01:02 AM 44.5414 -121.7269 334° Northwest 383 441 34,000  Level Seattle Center
Mon 03:02:02 AM 44.6367 -121.7939 333° Northwest 383 441 34,000  Level Seattle Center
Mon 03:03:02 AM 44.7328 -121.8608 334° Northwest 384 442 34,000  Level Seattle Center
Mon 03:04:02 AM 44.8308 -121.9303 333° Northwest 388 447 34,000  Level Seattle Center
Mon 03:05:03 AM 44.9375 -122.0058 333° Northwest 391 450 34,000  Level Seattle Center
Mon 03:06:03 AM 45.0308 -122.0731 333° Northwest 384 442 34,000  Level Seattle Center
Mon 03:07:03 AM 45.1283 -122.1422 333° Northwest 388 447 34,000  Level Seattle Center
Mon 03:08:03 AM 45.2233 -122.2122 333° Northwest 388 447 34,000  Level Seattle Center
Mon 03:09:03 AM 45.3192 -122.2806 333° Northwest 388 447 34,000  Level Seattle Center
Mon 03:10:03 AM 45.4153 -122.3503 333° Northwest 389 448 34,000  Level Seattle Center
Mon 03:11:04 AM 45.5111 -122.4194 333° Northwest 389 448 34,000  Level Seattle Center
Mon 03:12:04 AM 45.6064 -122.4883 333° Northwest 387 445 34,000  Level Seattle Center
Mon 03:13:04 AM 45.7133 -122.5242 347° North 401 461 34,000 -500 Level Seattle Center
Mon 03:14:04 AM 45.8264 -122.5308 358° North 409 471 33,000 -2,550 Descending Seattle Center
Mon 03:15:04 AM 45.9392 -122.5319 360° North 410 472 28,900 -4,150 Descending Seattle Center
Mon 03:16:04 AM 46.0614 -122.5381 358° North 437 503 24,700 -3,025 Descending Seattle Center
Mon 03:17:05 AM 46.1792 -122.5442 358° North 422 486 22,800 -1,736 Descending Seattle Center
Mon 03:18:05 AM 46.2892 -122.5483 359° North 397 457 21,200 -1,750 Descending Seattle Center
Mon 03:19:05 AM 46.3889 -122.5561 357° North 370 426 19,300 -1,950 Descending Seattle Center
Mon 03:20:05 AM 46.4883 -122.5569 360° North 362 417 17,300 -2,127 Descending Seattle Center
Mon 03:20:24 AM 46.5272 -122.5575 359° North 357 411 16,500 -1,900 Descending Seattle Center
Mon 03:21:05 AM 46.5853 -122.5603 358° North 352 405 15,400 -1,842 Descending Seattle Center
Mon 03:22:05 AM 46.6761 -122.5472 North 334 384 13,400 -1,934 Descending Seattle Center
Mon 03:23:06 AM 46.7744 -122.5142 13° North 328 377 11,500 -1,438 Descending Seattle Center
Mon 03:24:06 AM 46.8550 -122.4903 11° North 295 339 10,500 -1,185 Descending Seattle Center
Mon 03:24:27 AM 46.8792 -122.4839 10° North 284 327 9,900 -1,700 Descending Seattle Center
Mon 03:25:06 AM 46.9336 -122.4658 13° North 290 334 8,800 -1,600 Descending Seattle Center
Mon 03:25:27 AM 46.9636 -122.4575 11° North 284 327 8,300 -1,400 Descending Seattle Center
Mon 03:26:06 AM 47.0111 -122.4444 11° North 285 328 7,400 -1,315 Descending Seattle Center
Mon 03:26:40 AM 47.0508 -122.4328 11° North 281 323 6,700 -1,000 Descending Seattle Center
Mon 03:27:06 AM 47.0853 -122.4208 13° North 275 316 6,400 -1,180 Descending Seattle Center
Mon 03:27:41 AM 47.1233 -122.4128 North 259 298 5,500 -1,400 Descending Seattle Center
Mon 03:28:06 AM 47.1547 -122.4017 14° North 258 297 5,000 -778 Descending Seattle Center
Mon 03:28:35 AM 47.1847 -122.3922 12° North 250 288 4,800 -492 Descending Seattle Center
Mon 03:29:07 AM 47.2172 -122.3736 21° North 235 270 4,500 -492 Descending Seattle Center
Mon 03:29:36 AM 47.2406 -122.3583 24° Northeast 207 238 4,300 -900 Descending Seattle Center
Mon 03:30:07 AM 47.2681 -122.3425 21° North 205 236 3,600 -1,300 Descending Seattle Center
Mon 03:30:36 AM 47.2875 -122.3328 19° North 175 201 3,000 -1,200 Descending Seattle Center
Mon 03:31:07 AM 47.3133 -122.3186 20° North 178 205 2,400 -1,082 Descending Seattle Center
Mon 03:31:37 AM 47.3350 -122.3100 15° North 151 174 1,900 -900 Descending Seattle Center
Mon 03:32:07 AM 47.3533 -122.3081 North 148 170 1,500 -600 Descending Seattle Center
Mon 03:32:37 AM 47.3744 -122.3078 North 138 159 1,300 -500 Descending Seattle Center
Mon 03:33:07 AM 47.3928 -122.3081 359° North 142 163 1,000 -590 Descending Seattle Center
Mon 03:33:38 AM 47.4147 -122.3086 359° North 146 168 700 -700 Descending Seattle Center
Mon 03:34:07 AM 47.4336 -122.3083 North 147 169 300 -828 Descending Seattle Center
Mon 03:36:00 AM 47.4333 -122.3000 132° Southeast  Level FlightAware Approximate

Login

Don't have an account? Register now (free) for customized features, flight alerts, and more!